Time;durP1;ratioP1;P1;durP2;ratioP2;P2;SDS_P1;SDS_P2;PMS_P1;PMS_P2;Temp;Humidity;BMP_temperature;BMP_pressure;BME280_temperature;BME280_humidity;BME280_pressure;Samples;Min_cycle;Max_cycle;Signal;HPM_P1;HPM_P2
2022/03/08 00:02:03;;;;;;;5.10;3.83;;;;;;;0.08;78.77;96251.66;5113613;28;20024;-65
2022/03/08 00:04:29;;;;;;;5.20;3.47;;;;;;;0.14;79.06;96255.06;5117089;28;20025;-64
2022/03/08 00:06:55;;;;;;;4.63;3.60;;;;;;;0.17;79.45;96247.34;5117107;28;20016;-66
2022/03/08 00:09:20;;;;;;;3.90;3.50;;;;;;;0.24;78.61;96251.63;5117223;28;20020;-64
2022/03/08 00:11:46;;;;;;;5.20;3.72;;;;;;;0.22;79.22;96251.63;5116939;28;20034;-65
2022/03/08 00:14:12;;;;;;;4.22;3.78;;;;;;;0.27;79.95;96253.34;5116972;28;20024;-64
2022/03/08 00:16:38;;;;;;;3.85;3.38;;;;;;;0.28;79.87;96248.19;5116905;28;20015;-65
2022/03/08 00:19:04;;;;;;;4.30;3.70;;;;;;;0.32;79.45;96247.31;5117006;28;20023;-64
2022/03/08 00:21:29;;;;;;;3.75;3.38;;;;;;;0.40;79.31;96244.72;5116601;28;20066;-65
2022/03/08 00:23:58;;;;;;;4.68;3.35;;;;;;;0.37;78.66;96237.03;5116693;28;20027;-66
2022/03/08 00:26:23;;;;;;;3.55;3.25;;;;;;;0.33;77.52;96236.16;5116820;27;20117;-65
2022/03/08 00:28:49;;;;;;;3.15;2.85;;;;;;;0.35;77.54;96231.88;5116777;28;20034;-65
2022/03/08 00:31:15;;;;;;;3.75;3.00;;;;;;;0.30;77.64;96232.75;5116669;28;20028;-64
2022/03/08 00:33:41;;;;;;;3.25;2.95;;;;;;;0.29;77.66;96225.88;5116631;28;20054;-65
2022/03/08 00:36:07;;;;;;;3.60;3.22;;;;;;;0.31;78.08;96234.44;5116515;28;20024;-66
2022/03/08 00:38:33;;;;;;;4.18;3.78;;;;;;;0.34;78.10;96232.75;5116516;28;20016;-64
2022/03/08 00:40:59;;;;;;;5.13;4.25;;;;;;;0.37;77.89;96227.56;5116380;28;20060;-65
2022/03/08 00:43:24;;;;;;;3.72;3.03;;;;;;;0.39;77.94;96224.16;5116436;28;20027;-64
2022/03/08 00:45:50;;;;;;;6.13;5.50;;;;;;;0.40;78.34;96220.69;5116330;28;20024;-64
2022/03/08 00:48:16;;;;;;;7.32;6.10;;;;;;;0.30;77.90;96220.72;5116265;28;20026;-64
2022/03/08 00:50:41;;;;;;;5.13;4.18;;;;;;;0.32;78.12;96224.16;5116240;28;20070;-66
2022/03/08 00:53:07;;;;;;;5.47;4.30;;;;;;;0.35;77.91;96231.88;5116189;28;20417;-64
2022/03/08 00:55:34;;;;;;;5.75;3.63;;;;;;;0.37;78.12;96227.56;5116135;28;20023;-65
2022/03/08 00:58:00;;;;;;;3.97;3.35;;;;;;;0.39;77.87;96232.72;5116185;28;20020;-66
2022/03/08 01:00:28;;;;;;;4.53;3.78;;;;;;;0.41;78.08;96224.97;5116112;28;20020;-64
2022/03/08 01:02:53;;;;;;;4.28;3.05;;;;;;;0.41;77.86;96227.56;5114864;28;20070;-66
2022/03/08 01:05:19;;;;;;;5.28;4.03;;;;;;;0.44;77.40;96227.56;5116041;28;20473;-65
2022/03/08 01:07:46;;;;;;;3.60;3.25;;;;;;;0.41;78.01;96219.84;5115941;28;20020;-64
2022/03/08 01:10:15;;;;;;;4.88;4.00;;;;;;;0.40;78.09;96223.28;5115902;28;20546;-65
2022/03/08 01:12:42;;;;;;;5.00;3.70;;;;;;;0.35;77.74;96221.56;5115582;28;20486;-66
2022/03/08 01:15:08;;;;;;;6.90;3.92;;;;;;;0.34;77.69;96227.59;5115685;28;20065;-66
2022/03/08 01:17:35;;;;;;;4.03;3.60;;;;;;;0.37;77.85;96221.56;5115674;28;20016;-65
2022/03/08 01:20:00;;;;;;;4.05;3.40;;;;;;;0.40;78.04;96228.41;5115274;28;20051;-64
2022/03/08 01:22:26;;;;;;;4.47;3.83;;;;;;;0.40;78.07;96237.00;5115778;28;20471;-64
2022/03/08 01:24:53;;;;;;;4.18;3.38;;;;;;;0.41;78.00;96228.41;5115671;27;20032;-65
2022/03/08 01:27:18;;;;;;;4.20;3.40;;;;;;;0.43;77.71;96233.56;5115555;28;20026;-65
2022/03/08 01:29:44;;;;;;;4.13;2.95;;;;;;;0.41;78.12;96227.56;5115525;28;20023;-65
2022/03/08 01:32:09;;;;;;;4.32;3.45;;;;;;;0.37;78.51;96219.00;5115524;28;20027;-66
2022/03/08 01:34:35;;;;;;;4.40;3.58;;;;;;;0.31;78.77;96224.16;5115444;28;20027;-64
2022/03/08 01:37:02;;;;;;;4.93;3.40;;;;;;;0.25;78.70;96217.31;5115513;28;20024;-65
2022/03/08 01:39:28;;;;;;;4.57;3.65;;;;;;;0.25;78.92;96207.03;5115350;28;20099;-64
2022/03/08 01:41:53;;;;;;;4.80;3.53;;;;;;;0.21;79.22;96201.00;5115261;28;20181;-64
2022/03/08 01:44:19;;;;;;;5.30;3.78;;;;;;;0.18;79.33;96203.59;5115358;28;20028;-65
2022/03/08 01:46:45;;;;;;;4.40;3.33;;;;;;;0.15;79.32;96208.75;5115282;28;20028;-64
2022/03/08 01:49:11;;;;;;;4.40;4.00;;;;;;;0.07;79.15;96215.63;5115302;28;20031;-66
2022/03/08 01:51:42;;;;;;;5.07;4.25;;;;;;;0.10;79.23;96220.78;5115158;28;20027;-65
2022/03/08 01:54:09;;;;;;;5.57;4.88;;;;;;;0.14;78.71;96222.47;5115050;28;20457;-64
2022/03/08 01:56:35;;;;;;;4.53;3.83;;;;;;;0.04;78.30;96206.22;5115048;28;20381;-65
2022/03/08 01:59:01;;;;;;;4.00;3.60;;;;;;;0.18;78.43;96231.06;5115061;28;20024;-66
2022/03/08 02:01:27;;;;;;;5.15;4.25;;;;;;;0.11;78.37;96243.06;5114862;28;20028;-65
2022/03/08 02:03:53;;;;;;;4.53;4.00;;;;;;;0.13;78.79;96251.66;5114808;28;20411;-65
2022/03/08 02:06:19;;;;;;;4.35;3.90;;;;;;;0.16;79.14;96250.78;5114855;28;20020;-66
2022/03/08 02:08:45;;;;;;;4.22;3.65;;;;;;;0.20;79.49;96244.75;5114844;28;20038;-65
2022/03/08 02:11:11;;;;;;;6.60;3.70;;;;;;;0.22;78.72;96243.91;5114784;27;20027;-64
2022/03/08 02:13:38;;;;;;;5.10;3.72;;;;;;;0.18;78.51;96254.22;5114715;28;20024;-64
2022/03/08 02:16:05;;;;;;;5.35;4.15;;;;;;;0.18;78.54;96260.19;5114660;28;20031;-64
2022/03/08 02:18:31;;;;;;;4.88;3.90;;;;;;;0.23;78.65;96253.34;5114754;28;20476;-66
2022/03/08 02:21:03;;;;;;;4.05;3.25;;;;;;;0.28;78.66;96253.34;5114302;28;20035;-67
2022/03/08 02:23:29;;;;;;;4.88;3.83;;;;;;;0.30;78.62;96261.06;5114655;28;20381;-65
2022/03/08 02:25:55;;;;;;;11.43;4.38;;;;;;;0.33;79.03;96263.63;5113699;28;20024;-66
2022/03/08 02:28:21;;;;;;;4.95;3.85;;;;;;;0.36;79.14;96266.19;5114399;28;20039;-65
2022/03/08 02:30:47;;;;;;;5.68;4.38;;;;;;;0.38;78.81;96256.75;5114331;28;20460;-66
2022/03/08 02:33:13;;;;;;;5.75;4.57;;;;;;;0.43;78.48;96261.88;5114368;28;20051;-66
2022/03/08 02:35:38;;;;;;;4.70;4.00;;;;;;;0.42;78.43;96255.88;5113001;28;20027;-66
2022/03/08 02:38:06;;;;;;;4.28;3.50;;;;;;;0.44;77.82;96259.31;5114365;28;20098;-65
2022/03/08 02:40:36;;;;;;;5.38;3.80;;;;;;;0.41;77.82;96246.44;5114085;28;20035;-66
2022/03/08 02:43:04;;;;;;;6.13;4.07;;;;;;;0.41;78.27;96256.72;5114156;28;20481;-66
2022/03/08 02:45:30;;;;;;;4.18;3.78;;;;;;;0.38;77.99;96254.16;5114146;28;20053;-66
2022/03/08 02:47:56;;;;;;;6.43;4.88;;;;;;;0.37;78.01;96265.31;5114061;28;20024;-65
2022/03/08 02:50:23;;;;;;;6.45;4.63;;;;;;;0.42;78.23;96261.00;5114028;28;20058;-65
2022/03/08 02:52:51;;;;;;;5.07;3.97;;;;;;;0.41;77.95;96258.44;5113965;28;20047;-65
2022/03/08 02:55:19;;;;;;;5.40;4.70;;;;;;;0.42;77.99;96252.47;5113879;28;20027;-66
2022/03/08 02:57:45;;;;;;;6.40;5.35;;;;;;;0.44;78.15;96251.59;5113968;28;20020;-65
2022/03/08 03:00:13;;;;;;;6.38;5.10;;;;;;;0.47;77.88;96261.88;5113865;28;20080;-65
2022/03/08 03:02:39;;;;;;;6.90;5.60;;;;;;;0.41;77.65;96259.31;5113809;28;20031;-66
2022/03/08 03:05:05;;;;;;;6.60;5.20;;;;;;;0.36;77.74;96259.31;5113807;28;20106;-65
2022/03/08 03:07:32;;;;;;;6.38;4.70;;;;;;;0.30;77.68;96255.91;5113671;28;20043;-66
2022/03/08 03:09:57;;;;;;;5.80;5.15;;;;;;;0.30;77.81;96254.16;5113788;28;20385;-66
2022/03/08 03:12:23;;;;;;;6.75;5.03;;;;;;;0.30;78.02;96248.19;5113708;28;20023;-64
2022/03/08 03:14:49;;;;;;;6.47;5.43;;;;;;;0.37;78.07;96257.59;5113668;28;20391;-64
2022/03/08 03:17:16;;;;;;;5.95;4.35;;;;;;;0.35;78.13;96257.59;5113516;28;20020;-65
2022/03/08 03:19:42;;;;;;;6.18;4.60;;;;;;;0.40;78.03;96254.16;5113257;28;20439;-65
2022/03/08 03:22:07;;;;;;;7.07;5.15;;;;;;;0.40;78.17;96255.03;5113803;28;20028;-66
2022/03/08 03:24:33;;;;;;;5.20;4.65;;;;;;;0.33;78.04;96249.03;5113659;28;20095;-65
2022/03/08 03:26:58;;;;;;;5.65;4.57;;;;;;;0.31;77.79;96249.91;5113579;28;20047;-65
2022/03/08 03:29:24;;;;;;;5.18;4.65;;;;;;;0.30;77.80;96246.44;5113536;28;20537;-64
2022/03/08 03:31:49;;;;;;;7.40;5.63;;;;;;;0.18;77.51;96238.78;5113408;28;20068;-65
2022/03/08 03:34:15;;;;;;;4.80;4.30;;;;;;;0.15;77.59;96244.75;5113354;28;20023;-66
2022/03/08 03:36:41;;;;;;;5.75;5.15;;;;;;;0.13;77.64;96241.34;5115052;28;20015;-66
2022/03/08 03:39:07;;;;;;;4.70;4.05;;;;;;;0.04;78.14;96237.06;5117670;28;20024;-66
2022/03/08 03:41:32;;;;;;;5.47;4.15;;;;;;;-0.13;78.28;96237.94;5117552;28;20019;-65
2022/03/08 03:43:58;;;;;;;5.45;4.30;;;;;;;-0.14;78.74;96228.53;5117698;28;20108;-64
2022/03/08 03:46:24;;;;;;;6.72;4.45;;;;;;;-0.18;78.62;96231.09;5117554;28;20389;-65
2022/03/08 03:48:50;;;;;;;6.93;5.45;;;;;;;-0.21;78.64;96236.25;5117605;28;20028;-66
2022/03/08 03:51:16;;;;;;;8.23;6.03;;;;;;;-0.19;79.11;96239.66;5117424;28;20066;-65
2022/03/08 03:53:43;;;;;;;6.45;5.35;;;;;;;-0.22;78.69;96232.78;5117437;28;20529;-66
2022/03/08 03:56:09;;;;;;;6.50;5.05;;;;;;;-0.18;78.63;96243.94;5117396;28;20027;-65
2022/03/08 03:58:35;;;;;;;7.30;5.90;;;;;;;-0.15;78.55;96247.38;5117339;28;20099;-66
2022/03/08 04:01:00;;;;;;;6.40;5.22;;;;;;;-0.11;78.58;96247.38;5117205;28;20031;-65
2022/03/08 04:03:26;;;;;;;6.55;5.05;;;;;;;-0.09;78.92;96246.50;5117294;28;20122;-66
2022/03/08 04:05:52;;;;;;;5.35;4.57;;;;;;;-0.04;78.80;96243.94;5117131;28;20030;-66
2022/03/08 04:08:20;;;;;;;4.60;3.97;;;;;;;0.02;78.67;96248.22;5117109;27;20023;-65
2022/03/08 04:10:48;;;;;;;5.78;4.20;;;;;;;0.04;79.14;96249.94;5117170;28;20034;-65
2022/03/08 04:13:14;;;;;;;5.53;4.47;;;;;;;0.03;79.04;96248.22;5117122;28;20032;-64
2022/03/08 04:15:41;;;;;;;6.30;4.45;;;;;;;0.06;79.38;96257.66;5116985;28;20077;-65
2022/03/08 04:18:06;;;;;;;5.07;4.10;;;;;;;0.08;78.95;96250.78;5116935;28;20499;-65
2022/03/08 04:20:32;;;;;;;6.30;4.30;;;;;;;0.10;78.45;96255.09;5116647;28;20134;-64
2022/03/08 04:22:58;;;;;;;4.68;4.25;;;;;;;0.08;77.77;96251.66;5116947;28;20042;-65
2022/03/08 04:25:23;;;;;;;5.03;4.53;;;;;;;0.07;77.81;96244.78;5116827;28;20518;-66
2022/03/08 04:27:49;;;;;;;6.45;5.20;;;;;;;0.08;78.19;96250.78;5116739;28;20028;-64
2022/03/08 04:30:15;;;;;;;5.80;4.85;;;;;;;0.12;78.15;96255.09;5116792;28;20016;-64
2022/03/08 04:32:41;;;;;;;6.45;5.22;;;;;;;0.13;78.25;96261.94;5116625;28;20023;-65
2022/03/08 04:35:07;;;;;;;5.43;4.93;;;;;;;0.16;78.54;96261.94;5116591;28;20504;-66
2022/03/08 04:37:33;;;;;;;7.18;4.70;;;;;;;0.18;78.40;96264.50;5116518;28;20023;-65
2022/03/08 04:39:59;;;;;;;5.70;4.43;;;;;;;0.14;78.81;96255.06;5116396;28;20113;-64
2022/03/08 04:42:25;;;;;;;7.38;4.95;;;;;;;0.16;78.87;96261.94;5116427;28;20023;-64
2022/03/08 04:44:50;;;;;;;4.55;4.10;;;;;;;0.20;78.90;96261.06;5116423;28;20026;-65
2022/03/08 04:47:16;;;;;;;6.97;5.25;;;;;;;0.23;78.84;96261.06;5116454;28;20354;-65
2022/03/08 04:49:42;;;;;;;6.22;4.20;;;;;;;0.25;78.68;96261.91;5115640;28;20373;-64
2022/03/08 04:52:08;;;;;;;4.43;3.92;;;;;;;0.30;78.37;96261.91;5116327;28;20027;-65
2022/03/08 04:54:33;;;;;;;5.93;4.72;;;;;;;0.25;78.59;96261.91;5115050;28;20030;-64
2022/03/08 04:56:59;;;;;;;8.75;4.35;;;;;;;0.28;78.89;96260.19;5116214;28;20058;-64
2022/03/08 04:59:25;;;;;;;6.28;5.07;;;;;;;0.28;79.23;96268.78;5114894;28;20404;-65
2022/03/08 05:01:51;;;;;;;7.00;5.15;;;;;;;0.29;79.26;96270.47;5116141;28;20102;-66
2022/03/08 05:04:16;;;;;;;5.82;4.30;;;;;;;0.32;79.36;96267.91;5116176;28;20426;-65
2022/03/08 05:06:42;;;;;;;6.03;4.78;;;;;;;0.32;78.99;96273.06;5116064;28;20020;-64
2022/03/08 05:09:08;;;;;;;5.38;4.10;;;;;;;0.33;79.18;96272.19;5115942;28;20027;-65
2022/03/08 05:11:34;;;;;;;6.05;5.22;;;;;;;0.36;79.03;96276.50;5114655;28;20054;-66
2022/03/08 05:13:59;;;;;;;7.25;5.43;;;;;;;0.36;78.63;96276.50;5115885;28;20065;-64
2022/03/08 05:16:25;;;;;;;6.03;4.93;;;;;;;0.39;78.88;96284.19;5115688;28;20024;-64
2022/03/08 05:18:50;;;;;;;6.15;4.72;;;;;;;0.39;78.95;96284.19;5115844;28;20012;-65
2022/03/08 05:21:16;;;;;;;6.45;4.72;;;;;;;0.39;78.92;96294.47;5115525;28;20069;-66
2022/03/08 05:23:42;;;;;;;5.93;4.45;;;;;;;0.36;78.90;96286.78;5115735;28;20030;-65
2022/03/08 05:26:08;;;;;;;6.40;4.13;;;;;;;0.36;78.85;96291.94;5115699;28;20500;-64
2022/03/08 05:28:33;;;;;;;5.53;4.35;;;;;;;0.39;78.92;96299.63;5115601;28;20542;-66
2022/03/08 05:30:59;;;;;;;6.40;5.00;;;;;;;0.43;79.24;96296.22;5115458;28;20016;-66
2022/03/08 05:33:25;;;;;;;5.20;4.70;;;;;;;0.47;78.86;96292.75;5115468;28;20027;-64
2022/03/08 05:35:51;;;;;;;5.03;3.95;;;;;;;0.48;78.59;96296.19;5115552;28;20024;-64
2022/03/08 05:38:17;;;;;;;7.88;4.38;;;;;;;0.49;78.56;96303.91;5115472;28;20016;-65
2022/03/08 05:40:44;;;;;;;7.85;4.72;;;;;;;0.52;78.65;96304.75;5115271;28;20032;-64
2022/03/08 05:43:10;;;;;;;6.60;4.70;;;;;;;0.55;78.70;96308.19;5115276;28;20012;-64
2022/03/08 05:45:36;;;;;;;5.55;4.13;;;;;;;0.61;78.69;96313.31;5115213;27;20068;-66
2022/03/08 05:48:02;;;;;;;4.10;3.70;;;;;;;0.64;78.26;96309.91;5115153;28;20092;-64
2022/03/08 05:50:28;;;;;;;5.65;4.38;;;;;;;0.67;78.16;96315.03;5115306;28;20038;-65
2022/03/08 05:52:53;;;;;;;6.75;5.13;;;;;;;0.71;78.05;96309.00;5115138;28;20465;-63
2022/03/08 05:55:19;;;;;;;7.78;6.32;;;;;;;0.80;77.83;96313.28;5115097;28;20103;-64
2022/03/08 05:57:45;;;;;;;8.10;5.53;;;;;;;0.85;77.31;96308.13;5115129;28;20024;-66
2022/03/08 06:00:11;;;;;;;6.45;5.45;;;;;;;0.81;77.46;96312.41;5113799;28;20381;-65
2022/03/08 06:02:37;;;;;;;5.93;5.03;;;;;;;0.85;77.33;96319.25;5115002;28;20481;-65
2022/03/08 06:05:03;;;;;;;8.65;5.93;;;;;;;0.92;77.42;96316.66;5114817;28;20015;-64
2022/03/08 06:07:28;;;;;;;8.90;6.70;;;;;;;0.99;77.08;96326.94;5114783;28;20115;-65
2022/03/08 06:09:54;;;;;;;8.05;5.65;;;;;;;1.04;77.09;96326.06;5114847;28;20059;-66
2022/03/08 06:12:19;;;;;;;9.45;6.95;;;;;;;1.05;76.82;96328.66;5114759;28;20470;-65
2022/03/08 06:14:45;;;;;;;11.07;7.40;;;;;;;1.04;76.83;96326.94;5114697;27;20023;-64
2022/03/08 06:17:10;;;;;;;9.48;7.13;;;;;;;1.07;76.78;96328.63;5114672;28;20278;-65
2022/03/08 06:19:37;;;;;;;7.93;6.15;;;;;;;0.97;77.19;96328.66;5114322;28;20051;-66
2022/03/08 06:22:03;;;;;;;8.77;6.25;;;;;;;0.91;77.42;96328.72;5114535;28;20427;-65
2022/03/08 06:24:29;;;;;;;10.05;7.03;;;;;;;1.00;77.36;96341.53;5114490;28;20102;-65
2022/03/08 06:26:54;;;;;;;10.80;8.00;;;;;;;1.07;77.43;96331.22;5114645;28;20107;-64
2022/03/08 06:29:20;;;;;;;11.52;8.43;;;;;;;1.12;77.33;96332.91;5114430;28;20027;-65
2022/03/08 06:31:45;;;;;;;10.43;7.38;;;;;;;1.15;77.07;96334.63;5114343;28;20016;-64
2022/03/08 06:34:11;;;;;;;10.93;7.50;;;;;;;1.16;76.93;96338.06;5114334;28;20027;-64
2022/03/08 06:36:39;;;;;;;14.18;10.60;;;;;;;1.11;77.29;96330.34;5114280;28;20370;-66
2022/03/08 06:39:05;;;;;;;15.43;11.07;;;;;;;1.10;77.38;96332.06;5114228;28;20027;-65
2022/03/08 06:41:32;;;;;;;13.70;9.90;;;;;;;1.10;77.37;96338.94;5114245;28;20034;-64
2022/03/08 06:44:02;;;;;;;13.43;9.23;;;;;;;1.15;77.23;96342.38;5112902;28;20027;-66
2022/03/08 06:46:27;;;;;;;11.82;8.20;;;;;;;1.16;77.35;96338.06;5114312;28;20545;-64
2022/03/08 06:48:53;;;;;;;11.52;8.48;;;;;;;1.23;77.50;96345.75;5114100;28;20027;-65
2022/03/08 06:51:19;;;;;;;11.52;9.15;;;;;;;1.34;77.30;96344.84;5112835;28;20023;-64
2022/03/08 06:53:44;;;;;;;12.25;9.55;;;;;;;1.39;76.68;96350.88;5114091;28;20042;-64
2022/03/08 06:56:10;;;;;;;13.07;9.60;;;;;;;1.43;76.82;96349.97;5113952;28;20020;-65
2022/03/08 06:58:36;;;;;;;10.23;8.43;;;;;;;1.46;76.71;96349.97;5114050;28;20027;-64
2022/03/08 07:01:02;;;;;;;13.80;9.30;;;;;;;1.39;76.84;96348.28;5113845;28;20485;-65
2022/03/08 07:03:27;;;;;;;13.05;8.98;;;;;;;1.42;77.03;96350.84;5113954;28;20027;-64
2022/03/08 07:05:53;;;;;;;12.18;9.48;;;;;;;1.44;76.77;96354.25;5113848;28;20024;-64
2022/03/08 07:08:18;;;;;;;11.80;8.85;;;;;;;1.49;77.10;96352.53;5113775;28;20019;-65
2022/03/08 07:10:44;;;;;;;12.15;9.35;;;;;;;1.56;76.49;96352.50;5113430;28;20473;-65
2022/03/08 07:13:09;;;;;;;15.90;9.35;;;;;;;1.58;76.43;96348.19;5113619;28;20027;-64
2022/03/08 07:15:35;;;;;;;14.68;11.20;;;;;;;1.59;76.38;96350.75;5113732;28;20020;-66
2022/03/08 07:18:01;;;;;;;10.73;8.45;;;;;;;1.55;76.34;96349.06;5113707;28;20048;-65
2022/03/08 07:20:27;;;;;;;12.73;9.63;;;;;;;1.61;76.06;96345.59;5113243;28;20086;-65
2022/03/08 07:22:54;;;;;;;15.57;10.70;;;;;;;1.75;75.80;96332.63;5113506;28;20051;-65
2022/03/08 07:25:20;;;;;;;15.98;9.82;;;;;;;1.79;75.74;96342.03;5113525;28;20393;-63
2022/03/08 07:27:45;;;;;;;13.23;9.77;;;;;;;1.82;75.66;96333.41;5113552;28;20020;-64
2022/03/08 07:30:11;;;;;;;12.50;9.15;;;;;;;1.95;75.84;96337.63;5113591;28;20573;-64
2022/03/08 07:32:37;;;;;;;11.43;8.95;;;;;;;2.15;75.26;96328.88;5113461;28;20016;-66
2022/03/08 07:35:05;;;;;;;11.13;9.13;;;;;;;2.33;73.48;96327.88;5113499;28;20107;-65
2022/03/08 07:37:37;;;;;;;11.27;9.13;;;;;;;2.46;73.69;96327.75;5113574;28;20020;-66
2022/03/08 07:40:05;;;;;;;9.88;7.97;;;;;;;2.60;73.09;96325.06;5113473;28;20076;-65
2022/03/08 07:42:31;;;;;;;13.00;9.02;;;;;;;2.69;73.21;96327.56;5113511;28;20032;-65
2022/03/08 07:44:57;;;;;;;10.27;8.43;;;;;;;2.87;72.50;96323.94;5113488;28;20081;-66
2022/03/08 07:47:23;;;;;;;10.38;8.02;;;;;;;2.96;72.37;96320.38;5113343;28;20481;-65
2022/03/08 07:49:48;;;;;;;9.77;7.65;;;;;;;3.08;71.94;96323.69;5113296;28;20065;-66
2022/03/08 07:52:14;;;;;;;9.82;8.25;;;;;;;3.25;71.46;96323.50;5113373;28;20028;-65
2022/03/08 07:54:39;;;;;;;7.75;6.95;;;;;;;3.41;70.70;96321.56;5113211;28;20419;-65
2022/03/08 07:57:05;;;;;;;7.93;7.13;;;;;;;3.59;69.89;96319.59;5113443;28;20020;-66
2022/03/08 07:59:31;;;;;;;9.13;7.20;;;;;;;3.65;69.14;96319.53;5113190;28;20027;-66
2022/03/08 08:01:57;;;;;;;8.45;6.60;;;;;;;3.55;69.62;96318.78;5113154;28;20438;-64
2022/03/08 08:04:23;;;;;;;12.95;7.45;;;;;;;3.46;69.95;96316.34;5113216;28;20500;-65
2022/03/08 08:06:49;;;;;;;9.23;7.55;;;;;;;3.47;69.88;96313.75;5113246;28;20043;-64
2022/03/08 08:09:15;;;;;;;9.68;7.63;;;;;;;3.56;69.37;96312.75;5113125;28;20431;-64
2022/03/08 08:11:41;;;;;;;8.20;7.13;;;;;;;3.57;69.54;96311.88;5113023;28;20020;-63
2022/03/08 08:14:07;;;;;;;9.05;7.30;;;;;;;3.48;69.83;96309.41;5113234;28;20351;-65
2022/03/08 08:16:33;;;;;;;8.77;7.88;;;;;;;3.53;69.54;96320.56;5113096;28;20020;-64
2022/03/08 08:18:58;;;;;;;8.55;6.35;;;;;;;3.22;70.09;96316.63;5113117;28;20031;-65
2022/03/08 08:21:24;;;;;;;7.30;6.10;;;;;;;3.22;70.22;96310.63;5112702;28;20122;-64
2022/03/08 08:23:50;;;;;;;6.82;6.03;;;;;;;3.22;69.32;96310.63;5114644;28;20038;-63
2022/03/08 08:26:16;;;;;;;7.20;6.50;;;;;;;3.27;69.66;96307.09;5116835;27;20106;-65
2022/03/08 08:28:42;;;;;;;8.57;6.88;;;;;;;3.35;70.05;96314.75;5116630;28;20028;-63
2022/03/08 08:31:08;;;;;;;11.60;9.23;;;;;;;3.40;70.36;96314.66;5116725;28;20020;-64
2022/03/08 08:33:34;;;;;;;12.60;9.18;;;;;;;3.45;70.34;96309.44;5116670;28;20448;-64
2022/03/08 08:36:02;;;;;;;12.05;9.75;;;;;;;3.40;69.87;96305.19;5116537;28;20027;-65
2022/03/08 08:38:28;;;;;;;12.73;9.95;;;;;;;3.49;70.31;96311.13;5116388;28;20499;-65
2022/03/08 08:40:54;;;;;;;13.10;9.73;;;;;;;3.45;70.18;96307.72;5116443;28;20106;-64
2022/03/08 08:43:20;;;;;;;12.50;10.43;;;;;;;3.45;69.82;96312.03;5116550;28;20024;-65
2022/03/08 08:45:51;;;;;;;13.30;10.80;;;;;;;3.29;70.43;96313.06;5116340;28;20020;-65
2022/03/08 08:48:17;;;;;;;11.90;10.30;;;;;;;3.13;70.89;96309.84;5116286;28;20381;-65
2022/03/08 08:50:42;;;;;;;11.48;9.60;;;;;;;2.94;70.79;96309.19;5116337;28;20024;-66
2022/03/08 08:53:08;;;;;;;14.38;11.30;;;;;;;2.89;71.22;96317.00;5116327;28;20189;-65
2022/03/08 08:55:36;;;;;;;13.10;10.50;;;;;;;2.85;71.72;96312.75;5116281;28;20473;-62
2022/03/08 08:58:03;;;;;;;12.77;10.73;;;;;;;2.72;71.98;96312.03;5116108;28;20111;-63
2022/03/08 09:00:29;;;;;;;13.68;11.18;;;;;;;2.71;72.23;96310.28;5116035;28;20020;-65
2022/03/08 09:02:54;;;;;;;13.60;10.80;;;;;;;2.66;72.19;96309.50;5115978;28;20018;-64
2022/03/08 09:05:20;;;;;;;13.93;10.68;;;;;;;2.58;72.64;96309.56;5115919;28;20098;-63
2022/03/08 09:07:46;;;;;;;12.82;10.35;;;;;;;2.51;73.13;96306.22;5115893;28;20020;-64
2022/03/08 09:10:11;;;;;;;13.20;9.80;;;;;;;2.58;73.32;96312.16;5116093;28;20026;-63
2022/03/08 09:12:37;;;;;;;14.27;10.70;;;;;;;2.60;73.67;96307.84;5115816;28;20015;-64
2022/03/08 09:15:04;;;;;;;15.02;10.88;;;;;;;2.52;73.47;96307.91;5115704;28;20073;-63
2022/03/08 09:17:30;;;;;;;14.07;11.35;;;;;;;2.58;73.14;96306.13;5115816;28;20499;-63
2022/03/08 09:19:55;;;;;;;20.42;15.77;;;;;;;2.62;73.55;96303.50;5115446;28;20040;-66
2022/03/08 09:22:21;;;;;;;16.73;13.45;;;;;;;2.54;73.93;96305.31;5115801;28;20036;-66
2022/03/08 09:24:47;;;;;;;16.40;12.05;;;;;;;2.51;73.57;96305.34;5115595;28;20034;-64
2022/03/08 09:27:12;;;;;;;15.10;12.25;;;;;;;2.48;73.44;96303.66;5115651;28;20040;-64
2022/03/08 09:29:38;;;;;;;16.65;14.02;;;;;;;2.30;73.68;96304.69;5115553;28;20055;-66
2022/03/08 09:32:04;;;;;;;14.55;12.13;;;;;;;2.30;74.03;96307.25;5115642;28;20019;-64
2022/03/08 09:34:30;;;;;;;17.80;12.20;;;;;;;2.31;74.02;96308.09;5115300;28;20445;-63
2022/03/08 09:36:55;;;;;;;14.45;11.95;;;;;;;2.27;73.85;96308.16;5115456;28;20023;-66
2022/03/08 09:39:21;;;;;;;16.05;12.07;;;;;;;2.31;73.87;96316.72;5115319;28;20095;-64
2022/03/08 09:41:51;;;;;;;14.63;11.70;;;;;;;2.31;74.07;96313.25;5115322;28;20029;-64
2022/03/08 09:44:18;;;;;;;12.57;10.43;;;;;;;2.42;73.97;96310.59;5115401;28;20030;-63
2022/03/08 09:46:43;;;;;;;13.43;10.73;;;;;;;2.46;74.02;96309.69;5115458;28;20027;-66
2022/03/08 09:49:09;;;;;;;11.57;9.60;;;;;;;2.62;73.94;96311.25;5115174;28;20073;-64
2022/03/08 09:51:38;;;;;;;10.93;9.43;;;;;;;2.77;72.62;96307.66;5115046;28;20019;-64
2022/03/08 09:54:06;;;;;;;10.50;8.70;;;;;;;2.96;70.90;96316.94;5114987;28;20016;-64
2022/03/08 09:56:33;;;;;;;9.60;8.02;;;;;;;3.06;70.11;96307.34;5115005;28;20103;-64
2022/03/08 09:58:59;;;;;;;9.20;7.50;;;;;;;3.19;70.21;96308.06;5115091;28;20099;-64
2022/03/08 10:01:26;;;;;;;10.18;8.82;;;;;;;3.37;69.40;96317.31;5114711;28;20020;-63
2022/03/08 10:03:53;;;;;;;13.50;10.23;;;;;;;3.45;70.03;96307.72;5114800;28;20016;-66
2022/03/08 10:06:18;;;;;;;13.73;11.05;;;;;;;3.47;69.59;96305.13;5114922;27;20385;-64
2022/03/08 10:08:45;;;;;;;12.27;9.75;;;;;;;3.63;69.44;96313.50;5114742;28;20020;-64
2022/03/08 10:11:14;;;;;;;14.32;11.73;;;;;;;3.78;69.35;96315.03;5114850;28;20375;-63
2022/03/08 10:13:44;;;;;;;13.38;11.52;;;;;;;3.83;69.11;96314.97;5114719;28;20500;-65
2022/03/08 10:16:13;;;;;;;14.43;11.00;;;;;;;3.92;68.78;96312.25;5114662;28;20019;-63
2022/03/08 10:18:48;;;;;;;13.48;10.48;;;;;;;4.04;68.43;96316.38;5114578;28;20023;-64
2022/03/08 10:21:51;;;;;;;11.20;9.25;;;;;;;3.83;69.40;96321.00;5114140;28;20112;-66
2022/03/08 10:24:25;;;;;;;11.73;9.75;;;;;;;3.69;69.75;96318.59;5114638;28;20035;-65
2022/03/08 10:26:51;;;;;;;14.15;11.40;;;;;;;3.92;69.29;96314.84;5114570;28;20035;-66
2022/03/08 10:29:22;;;;;;;10.63;8.82;;;;;;;4.10;68.24;96312.84;5114508;28;20477;-63
2022/03/08 10:31:48;;;;;;;9.65;8.63;;;;;;;4.30;69.10;96299.56;5114350;28;20465;-64
2022/03/08 10:34:17;;;;;;;12.48;10.40;;;;;;;4.63;69.10;96306.75;5114326;28;20468;-66
2022/03/08 10:37:01;;;;;;;12.45;9.88;;;;;;;5.03;67.60;96311.19;5114284;28;20032;-65
2022/03/08 10:39:27;;;;;;;11.98;9.50;;;;;;;5.19;66.66;96308.31;5114189;28;20035;-65
2022/03/08 10:41:56;;;;;;;13.00;10.07;;;;;;;5.25;65.97;96310.78;5114093;28;20024;-67
2022/03/08 10:44:40;;;;;;;14.10;11.20;;;;;;;5.18;65.76;96311.78;5114246;28;20079;-65
2022/03/08 10:47:11;;;;;;;14.40;11.93;;;;;;;5.09;65.23;96314.56;5113509;28;20019;-66
2022/03/08 10:49:49;;;;;;;18.75;12.15;;;;;;;4.86;66.02;96319.31;5114074;28;20059;-65
2022/03/08 10:52:14;;;;;;;14.90;12.75;;;;;;;4.62;66.75;96318.00;5113998;28;20030;-65
2022/03/08 10:54:40;;;;;;;15.38;12.88;;;;;;;4.35;67.88;96305.53;5113925;28;20378;-65
2022/03/08 10:57:07;;;;;;;15.27;13.02;;;;;;;4.35;68.03;96315.88;5113915;28;20387;-65
2022/03/08 10:59:33;;;;;;;13.60;11.82;;;;;;;4.27;68.25;96320.31;5113898;28;20384;-64
2022/03/08 11:02:19;;;;;;;14.57;11.68;;;;;;;4.06;68.46;96324.13;5113734;28;20481;-65
2022/03/08 11:04:44;;;;;;;12.13;10.32;;;;;;;4.21;68.14;96326.44;5113867;28;20032;-66
2022/03/08 11:07:11;;;;;;;11.05;9.52;;;;;;;4.24;67.25;96318.63;5113721;28;20042;-63
2022/03/08 11:09:38;;;;;;;12.50;10.35;;;;;;;4.19;66.46;96323.06;5113709;28;20020;-65
2022/03/08 11:12:04;;;;;;;11.23;10.02;;;;;;;4.13;65.83;96325.72;5113700;28;20019;-64
2022/03/08 11:14:30;;;;;;;12.82;10.48;;;;;;;4.00;67.11;96325.91;5113662;28;20485;-64
2022/03/08 11:16:57;;;;;;;14.63;11.88;;;;;;;4.00;67.34;96315.56;5113616;28;20032;-64
2022/03/08 11:19:27;;;;;;;9.93;8.93;;;;;;;3.92;66.49;96317.44;5113555;28;20104;-63
2022/03/08 11:21:57;;;;;;;7.60;6.80;;;;;;;3.52;61.51;96321.41;5113533;28;20082;-63
2022/03/08 11:24:23;;;;;;;7.13;6.00;;;;;;;3.28;62.99;96315.69;5113744;28;20055;-64
2022/03/08 11:26:50;;;;;;;6.32;5.72;;;;;;;3.03;63.22;96313.41;5113575;28;20028;-65
2022/03/08 11:29:16;;;;;;;7.80;6.35;;;;;;;2.84;63.83;96317.94;5113388;28;20110;-63
2022/03/08 11:31:45;;;;;;;7.38;5.60;;;;;;;2.73;63.69;96316.31;5113665;28;20031;-63
2022/03/08 11:34:35;;;;;;;7.80;6.28;;;;;;;2.69;64.24;96316.34;5113638;28;20103;-64